createdAt,value
2018-09-26T00:00:46.736Z,7.90
2018-09-26T00:03:43.750Z,7.82
2018-09-26T00:06:12.605Z,7.78
2018-09-26T00:08:41.451Z,7.75
2018-09-26T00:11:10.274Z,7.77
2018-09-26T00:13:39.114Z,7.76
2018-09-26T00:16:07.968Z,7.72
2018-09-26T00:18:36.806Z,7.70
2018-09-26T00:21:05.653Z,7.63
2018-09-26T00:23:34.474Z,7.64
2018-09-26T00:26:03.375Z,7.63
2018-09-26T00:28:32.254Z,7.59
2018-09-26T00:31:01.110Z,7.59
2018-09-26T00:33:29.947Z,7.60
2018-09-26T00:35:58.898Z,7.65
2018-09-26T00:38:27.655Z,7.69
2018-09-26T00:40:56.492Z,7.69
2018-09-26T00:43:25.316Z,7.66
2018-09-26T00:45:54.168Z,7.67
2018-09-26T00:48:23.013Z,7.62
2018-09-26T00:50:51.831Z,7.95
2018-09-26T00:53:20.655Z,7.72
2018-09-26T00:55:49.508Z,7.74
2018-09-26T00:58:18.396Z,7.67
2018-09-26T01:00:47.227Z,7.64
2018-09-26T01:03:16.071Z,7.68
2018-09-26T01:05:44.903Z,7.58
2018-09-26T01:08:13.770Z,7.56
2018-09-26T01:10:42.676Z,7.60
2018-09-26T01:13:11.550Z,7.66
2018-09-26T01:15:40.992Z,7.72
2018-09-26T01:18:09.855Z,7.99
2018-09-26T01:20:40.337Z,7.81
2018-09-26T01:23:09.397Z,8.10
2018-09-26T01:25:38.287Z,7.85
2018-09-26T01:28:07.123Z,7.78
2018-09-26T01:30:35.943Z,7.72
2018-09-26T01:33:04.790Z,7.73
2018-09-26T01:35:33.635Z,7.61
2018-09-26T01:38:02.485Z,7.53
2018-09-26T01:40:31.327Z,7.55
2018-09-26T01:43:00.137Z,7.55
2018-09-26T01:45:29.018Z,7.56
2018-09-26T01:47:57.830Z,7.54
2018-09-26T01:50:26.672Z,7.55
2018-09-26T01:52:55.493Z,7.56
2018-09-26T01:55:24.337Z,7.54
2018-09-26T01:57:53.156Z,7.52
2018-09-26T02:00:22.013Z,7.49
2018-09-26T02:02:50.836Z,7.50
2018-09-26T02:05:19.716Z,7.53
2018-09-26T02:07:48.560Z,7.52
2018-09-26T02:10:17.384Z,7.50
2018-09-26T02:12:46.233Z,7.42
2018-09-26T02:15:15.056Z,7.42
2018-09-26T02:17:43.901Z,7.39
2018-09-26T02:20:12.733Z,7.40
2018-09-26T02:22:41.564Z,7.39
2018-09-26T02:25:10.383Z,7.38
2018-09-26T02:27:39.216Z,7.40
2018-09-26T02:30:08.096Z,7.41
2018-09-26T02:32:36.954Z,7.39
2018-09-26T02:35:05.776Z,7.77
2018-09-26T02:37:34.619Z,7.59
2018-09-26T02:40:03.463Z,7.58
2018-09-26T02:42:32.287Z,7.59
2018-09-26T02:45:01.132Z,7.62
2018-09-26T02:47:30.022Z,7.62
2018-09-26T02:49:58.829Z,7.68
2018-09-26T02:52:27.646Z,7.71
2018-09-26T02:54:56.492Z,7.77
2018-09-26T02:57:25.309Z,7.86
2018-09-26T02:59:54.143Z,7.84
2018-09-26T03:02:22.990Z,7.83
2018-09-26T03:04:51.820Z,7.81
2018-09-26T03:07:20.644Z,7.83
2018-09-26T03:09:49.501Z,7.83
2018-09-26T03:12:18.392Z,7.83
2018-09-26T03:14:47.210Z,7.83
2018-09-26T03:17:16.066Z,7.95
2018-09-26T03:19:44.877Z,8.41
2018-09-26T03:22:13.706Z,8.26
2018-09-26T03:24:42.561Z,8.25
2018-09-26T03:27:11.391Z,8.33
2018-09-26T03:29:40.214Z,8.42
2018-09-26T03:32:09.050Z,8.47
2018-09-26T03:34:37.903Z,8.51
2018-09-26T03:37:07.268Z,8.60
2018-09-26T03:39:36.122Z,8.67
2018-09-26T03:42:04.990Z,8.73
2018-09-26T03:44:33.820Z,8.84
2018-09-26T03:47:02.646Z,8.91
2018-09-26T03:49:31.473Z,8.93
2018-09-26T03:52:00.297Z,8.98
2018-09-26T03:54:29.120Z,9.01
2018-09-26T03:56:57.993Z,9.05
2018-09-26T03:59:26.787Z,9.05
2018-09-26T04:01:55.691Z,9.04
2018-09-26T04:04:24.519Z,9.09
2018-09-26T04:06:53.341Z,9.13
2018-09-26T04:09:22.177Z,9.14
2018-09-26T04:11:50.985Z,9.02
2018-09-26T04:14:19.823Z,9.17
2018-09-26T04:16:48.628Z,9.25
2018-09-26T04:19:17.451Z,9.27
2018-09-26T04:21:46.291Z,9.24
2018-09-26T04:24:15.138Z,9.21
2018-09-26T04:26:44.232Z,9.28
2018-09-26T04:29:12.882Z,9.25
2018-09-26T04:31:41.700Z,9.31
2018-09-26T04:34:10.567Z,9.35
2018-09-26T04:36:39.373Z,9.33
2018-09-26T04:39:10.355Z,9.41
2018-09-26T04:41:39.188Z,9.41
2018-09-26T04:44:08.060Z,9.40
2018-09-26T04:46:37.018Z,9.48
2018-09-26T04:49:05.892Z,9.41
2018-09-26T04:51:35.399Z,9.39
2018-09-26T04:54:04.506Z,9.38
2018-09-26T04:56:33.518Z,9.42
2018-09-26T04:59:02.596Z,9.36
2018-09-26T05:01:31.458Z,9.48
2018-09-26T05:04:00.294Z,9.47
2018-09-26T05:06:29.125Z,9.47
2018-09-26T05:08:57.955Z,9.44
2018-09-26T05:11:26.884Z,9.85
2018-09-26T05:13:55.711Z,9.68
2018-09-26T05:16:24.558Z,9.67
2018-09-26T05:18:53.403Z,9.66
2018-09-26T05:21:22.263Z,9.66
2018-09-26T05:23:51.095Z,9.59
2018-09-26T05:26:19.942Z,9.65
2018-09-26T05:28:48.780Z,9.64
2018-09-26T05:31:17.615Z,10.02
2018-09-26T05:33:46.442Z,9.80
2018-09-26T05:36:15.268Z,9.67
2018-09-26T05:38:44.119Z,9.71
2018-09-26T05:41:12.934Z,9.75
2018-09-26T05:43:41.766Z,9.79
2018-09-26T05:46:10.606Z,9.74
2018-09-26T05:48:39.427Z,9.79
2018-09-26T05:51:08.313Z,9.74
2018-09-26T05:53:37.217Z,9.76
2018-09-26T05:56:05.772Z,9.84
2018-09-26T05:58:34.590Z,9.95
2018-09-26T06:01:03.410Z,9.93
2018-09-26T06:03:32.233Z,9.84
2018-09-26T06:06:01.075Z,9.86
2018-09-26T06:08:29.882Z,9.86
2018-09-26T06:10:58.723Z,10.32
2018-09-26T06:13:27.572Z,10.12
2018-09-26T06:15:58.893Z,10.09
2018-09-26T06:18:27.706Z,10.07
2018-09-26T06:20:56.550Z,10.47
2018-09-26T06:23:25.400Z,10.31
2018-09-26T06:25:54.307Z,10.31
2018-09-26T06:28:23.179Z,10.27
2018-09-26T06:30:52.021Z,10.27
2018-09-26T06:33:20.915Z,10.33
2018-09-26T06:35:49.755Z,10.29
2018-09-26T06:38:18.697Z,10.34
2018-09-26T06:40:47.527Z,10.37
2018-09-26T06:43:16.354Z,10.38
2018-09-26T06:45:45.209Z,10.51
2018-09-26T06:48:14.059Z,10.58
2018-09-26T06:50:42.943Z,10.61
2018-09-26T06:53:11.817Z,10.79
2018-09-26T06:55:40.655Z,10.95
2018-09-26T06:58:09.482Z,11.06
2018-09-26T07:00:38.328Z,11.13
2018-09-26T07:03:07.180Z,11.29
2018-09-26T07:05:35.994Z,11.34
2018-09-26T07:08:05.141Z,11.35
2018-09-26T07:10:34.040Z,11.28
2018-09-26T07:13:02.877Z,11.32
2018-09-26T07:15:31.710Z,11.35
2018-09-26T07:18:00.606Z,11.40
2018-09-26T07:20:29.387Z,11.59
2018-09-26T07:22:58.217Z,11.52
2018-09-26T07:25:27.054Z,11.66
2018-09-26T07:27:55.904Z,11.62
2018-09-26T07:30:24.934Z,11.73
2018-09-26T07:32:53.786Z,11.81
2018-09-26T07:35:22.627Z,11.89
2018-09-26T07:37:51.464Z,12.20
2018-09-26T07:40:20.330Z,12.07
2018-09-26T07:42:49.235Z,12.45
2018-09-26T07:45:18.094Z,12.22
2018-09-26T07:47:46.929Z,12.27
2018-09-26T07:50:15.747Z,12.16
2018-09-26T07:52:44.609Z,12.08
2018-09-26T07:55:13.430Z,11.99
2018-09-26T07:57:42.285Z,12.48
2018-09-26T08:00:11.131Z,12.35
2018-09-26T08:02:39.966Z,12.31
2018-09-26T08:05:08.836Z,12.31
2018-09-26T08:07:37.698Z,12.82
2018-09-26T08:10:06.535Z,12.76
2018-09-26T08:12:35.443Z,12.90
2018-09-26T08:15:04.382Z,12.77
2018-09-26T08:17:33.195Z,13.03
2018-09-26T08:20:02.055Z,12.79
2018-09-26T08:22:30.898Z,12.77
2018-09-26T08:24:59.708Z,13.18
2018-09-26T08:27:28.602Z,12.86
2018-09-26T08:29:57.498Z,12.98
2018-09-26T08:32:26.278Z,13.33
2018-09-26T08:34:55.120Z,13.15
2018-09-26T08:37:23.947Z,13.01
2018-09-26T08:39:52.796Z,12.93
2018-09-26T08:42:21.631Z,12.98
2018-09-26T08:44:50.479Z,12.94
2018-09-26T08:47:19.288Z,12.80
2018-09-26T08:49:48.203Z,13.09
2018-09-26T08:52:17.057Z,13.06
2018-09-26T08:54:45.953Z,13.26
2018-09-26T08:57:14.775Z,13.80
2018-09-26T08:59:43.688Z,14.07
2018-09-26T09:02:12.522Z,14.57
2018-09-26T09:04:41.365Z,14.82
2018-09-26T09:07:10.212Z,15.35
2018-09-26T09:09:39.012Z,15.63
2018-09-26T09:12:07.847Z,15.96
2018-09-26T09:14:36.840Z,16.29
2018-09-26T09:17:05.596Z,16.19
2018-09-26T09:19:34.433Z,16.60
2018-09-26T09:22:03.276Z,16.92
2018-09-26T09:24:32.143Z,16.97
2018-09-26T09:27:01.034Z,17.23
2018-09-26T09:29:29.939Z,17.65
2018-09-26T09:31:58.806Z,18.58
2018-09-26T09:34:27.658Z,19.88
2018-09-26T09:36:56.491Z,20.18
2018-09-26T09:39:25.332Z,20.45
2018-09-26T09:41:54.171Z,21.08
2018-09-26T09:44:23.061Z,22.31
2018-09-26T09:46:51.858Z,23.56
2018-09-26T09:49:20.682Z,23.34
2018-09-26T09:51:49.529Z,23.24
2018-09-26T09:54:18.356Z,22.90
2018-09-26T09:56:47.209Z,23.47
2018-09-26T09:59:16.022Z,24.08
2018-09-26T10:01:44.923Z,25.19
2018-09-26T10:04:13.689Z,24.38
2018-09-26T10:06:42.517Z,24.78
2018-09-26T10:09:11.344Z,25.65
2018-09-26T10:11:40.157Z,26.19
2018-09-26T10:14:09.013Z,26.10
2018-09-26T10:16:37.817Z,26.83
2018-09-26T10:19:06.736Z,26.62
2018-09-26T10:21:35.546Z,26.73
2018-09-26T10:24:04.392Z,27.34
2018-09-26T10:26:33.225Z,26.47
2018-09-26T10:29:02.067Z,27.15
2018-09-26T10:31:30.896Z,27.73
2018-09-26T10:33:59.741Z,26.87
2018-09-26T10:36:28.549Z,27.07
2018-09-26T10:38:57.444Z,28.27
2018-09-26T10:41:26.331Z,26.67
2018-09-26T10:43:55.098Z,26.98
2018-09-26T10:46:23.937Z,27.15
2018-09-26T10:48:52.764Z,27.30
2018-09-26T10:51:21.588Z,27.73
2018-09-26T10:53:50.394Z,26.90
2018-09-26T10:56:19.291Z,26.58
2018-09-26T10:58:48.046Z,27.11
2018-09-26T11:01:17.000Z,26.45
2018-09-26T11:03:45.852Z,25.73
2018-09-26T11:06:14.647Z,25.13
2018-09-26T11:08:43.565Z,25.65
2018-09-26T11:11:12.286Z,25.66
2018-09-26T11:13:41.137Z,25.97
2018-09-26T11:16:10.180Z,27.21
2018-09-26T11:18:39.033Z,26.48
2018-09-26T11:21:07.855Z,25.89
2018-09-26T11:23:36.736Z,26.18
2018-09-26T11:26:05.838Z,27.34
2018-09-26T11:28:34.639Z,26.44
2018-09-26T11:31:03.493Z,25.76
2018-09-26T11:33:32.446Z,26.08
2018-09-26T11:36:01.119Z,24.65
2018-09-26T11:38:29.961Z,24.81
2018-09-26T11:40:58.782Z,24.01
2018-09-26T11:43:27.629Z,23.64
2018-09-26T11:45:56.433Z,23.05
2018-09-26T11:48:25.276Z,22.85
2018-09-26T11:50:54.091Z,22.62
2018-09-26T11:53:22.980Z,22.32
2018-09-26T11:55:51.855Z,22.29
2018-09-26T11:58:20.697Z,21.73
2018-09-26T12:00:49.562Z,21.76
2018-09-26T12:03:18.399Z,21.68
2018-09-26T12:05:47.240Z,21.72
2018-09-26T12:08:16.230Z,21.52
2018-09-26T12:10:44.979Z,21.70
2018-09-26T12:13:13.808Z,21.67
2018-09-26T12:15:42.661Z,21.75
2018-09-26T12:18:11.536Z,21.29
2018-09-26T12:20:40.319Z,21.23
2018-09-26T12:23:09.153Z,21.28
2018-09-26T12:25:37.987Z,21.63
2018-09-26T12:28:06.864Z,21.46
2018-09-26T12:30:35.687Z,21.58
2018-09-26T12:33:04.610Z,21.53
2018-09-26T12:35:33.381Z,21.27
2018-09-26T12:38:02.286Z,21.27
2018-09-26T12:40:31.104Z,21.13
2018-09-26T12:42:59.926Z,21.05
2018-09-26T12:45:29.389Z,21.09
2018-09-26T12:47:58.238Z,21.24
2018-09-26T12:50:27.083Z,21.51
2018-09-26T12:52:55.940Z,21.32
2018-09-26T12:55:24.775Z,21.04
2018-09-26T12:57:53.596Z,21.15
2018-09-26T13:00:22.536Z,21.19
2018-09-26T13:02:51.274Z,21.22
2018-09-26T13:05:20.083Z,21.40
2018-09-26T13:07:48.911Z,21.46
2018-09-26T13:10:17.797Z,21.55
2018-09-26T13:12:46.591Z,21.59
2018-09-26T13:15:15.424Z,21.17
2018-09-26T13:17:44.257Z,21.22
2018-09-26T13:20:13.136Z,21.24
2018-09-26T13:22:41.896Z,21.16
2018-09-26T13:25:10.723Z,21.27
2018-09-26T13:27:39.561Z,20.89
2018-09-26T13:30:08.466Z,20.86
2018-09-26T13:32:37.267Z,20.89
2018-09-26T13:35:06.291Z,21.11
2018-09-26T13:37:35.371Z,21.24
2018-09-26T13:40:04.246Z,21.14
2018-09-26T13:42:33.103Z,20.93
2018-09-26T13:45:01.925Z,20.87
2018-09-26T13:47:30.757Z,20.82
2018-09-26T13:49:59.564Z,20.87
2018-09-26T13:52:28.414Z,20.92
2018-09-26T13:54:57.241Z,21.17
2018-09-26T13:57:26.062Z,21.01
2018-09-26T13:59:54.884Z,20.93
2018-09-26T14:02:23.891Z,21.34
2018-09-26T14:04:52.551Z,21.12
2018-09-26T14:07:21.387Z,21.11
2018-09-26T14:09:50.184Z,20.64
2018-09-26T14:12:19.012Z,20.82
2018-09-26T14:14:47.821Z,20.69
2018-09-26T14:17:16.731Z,20.81
2018-09-26T14:19:45.483Z,20.84
2018-09-26T14:22:14.375Z,20.89
2018-09-26T14:24:43.162Z,20.96
2018-09-26T14:27:12.012Z,20.84
2018-09-26T14:29:40.817Z,20.52
2018-09-26T14:32:09.666Z,20.59
2018-09-26T14:34:38.496Z,20.56
2018-09-26T14:37:07.344Z,20.49
2018-09-26T14:39:36.348Z,20.51
2018-09-26T14:42:04.983Z,20.47
2018-09-26T14:44:33.835Z,20.43
2018-09-26T14:49:30.387Z,20.40
2018-09-26T14:51:59.202Z,20.31
2018-09-26T14:54:28.077Z,20.30
2018-09-26T14:56:56.896Z,20.38
2018-09-26T14:59:25.766Z,20.37
2018-09-26T15:01:54.582Z,20.37
2018-09-26T15:04:23.481Z,20.31
2018-09-26T15:06:52.316Z,20.18
2018-09-26T15:09:21.221Z,20.20
2018-09-26T15:11:50.087Z,20.34
2018-09-26T15:14:18.957Z,20.47
2018-09-26T15:16:47.750Z,20.12
2018-09-26T15:19:16.585Z,20.09
2018-09-26T15:21:45.383Z,19.90
2018-09-26T15:24:14.277Z,19.99
2018-09-26T15:26:43.123Z,19.86
2018-09-26T15:29:11.951Z,19.83
2018-09-26T15:31:40.818Z,19.76
2018-09-26T15:34:09.691Z,19.90
2018-09-26T15:36:38.509Z,20.28
2018-09-26T15:39:08.747Z,20.08
2018-09-26T15:41:38.103Z,20.13
2018-09-26T15:44:06.814Z,20.11
2018-09-26T15:46:35.730Z,19.80
2018-09-26T15:49:04.683Z,19.81
2018-09-26T15:51:33.510Z,19.82
2018-09-26T15:54:02.346Z,19.83
2018-09-26T15:56:31.153Z,19.71
2018-09-26T15:59:00.720Z,19.74
2018-09-26T16:01:29.548Z,19.58
2018-09-26T16:03:58.387Z,19.62
2018-09-26T16:06:27.201Z,19.63
2018-09-26T16:08:56.035Z,19.48
2018-09-26T16:11:24.871Z,19.51
2018-09-26T16:13:53.714Z,19.50
2018-09-26T16:16:22.669Z,19.48
2018-09-26T16:18:51.387Z,19.46
2018-09-26T16:21:20.228Z,19.39
2018-09-26T16:23:49.055Z,19.38
2018-09-26T16:26:18.019Z,19.25
2018-09-26T16:28:46.761Z,19.16
2018-09-26T16:31:15.602Z,19.14
2018-09-26T16:33:44.429Z,19.04
2018-09-26T16:36:13.282Z,18.97
2018-09-26T16:38:42.183Z,18.86
2018-09-26T16:41:11.009Z,18.79
2018-09-26T16:43:39.947Z,18.78
2018-09-26T16:46:08.788Z,18.64
2018-09-26T16:48:37.575Z,18.55
2018-09-26T16:51:06.481Z,18.56
2018-09-26T16:53:35.334Z,18.79
2018-09-26T16:56:04.142Z,18.56
2018-09-26T16:58:32.948Z,18.51
2018-09-26T17:01:01.797Z,18.40
2018-09-26T17:03:30.613Z,18.33
2018-09-26T17:05:59.503Z,18.24
2018-09-26T17:08:28.321Z,18.21
2018-09-26T17:10:57.167Z,18.44
2018-09-26T17:13:25.988Z,18.20
2018-09-26T17:15:54.856Z,18.13
2018-09-26T17:18:23.737Z,18.05
2018-09-26T17:20:52.597Z,17.97
2018-09-26T17:23:21.441Z,17.92
2018-09-26T17:25:50.296Z,17.75
2018-09-26T17:28:19.157Z,17.67
2018-09-26T17:30:47.995Z,17.62
2018-09-26T17:33:16.799Z,17.57
2018-09-26T17:35:45.673Z,17.47
2018-09-26T17:38:14.475Z,17.72
2018-09-26T17:40:43.359Z,17.45
2018-09-26T17:43:12.215Z,17.33
2018-09-26T17:45:41.166Z,17.26
2018-09-26T17:48:09.997Z,17.21
2018-09-26T17:50:38.756Z,17.15
2018-09-26T17:53:07.584Z,17.06
2018-09-26T17:55:36.416Z,16.97
2018-09-26T17:58:05.298Z,16.89
2018-09-26T18:00:34.093Z,16.82
2018-09-26T18:03:02.928Z,16.75
2018-09-26T18:05:31.873Z,16.69
2018-09-26T18:08:00.720Z,16.65
2018-09-26T18:10:29.556Z,16.64
2018-09-26T18:12:58.421Z,16.55
2018-09-26T18:15:27.246Z,16.49
2018-09-26T18:17:56.102Z,16.45
2018-09-26T18:20:24.957Z,16.46
2018-09-26T18:22:53.782Z,16.43
2018-09-26T18:25:22.603Z,16.43
2018-09-26T18:27:51.449Z,16.38
2018-09-26T18:30:20.246Z,16.34
2018-09-26T18:32:49.083Z,16.26
2018-09-26T18:35:17.925Z,16.21
2018-09-26T18:37:46.757Z,16.19
2018-09-26T18:40:15.596Z,16.51
2018-09-26T18:42:44.650Z,16.32
2018-09-26T18:45:13.523Z,16.28
2018-09-26T18:47:42.590Z,16.24
2018-09-26T18:50:11.424Z,16.17
2018-09-26T18:52:40.273Z,16.44
2018-09-26T18:55:09.136Z,16.15
2018-09-26T18:57:37.972Z,16.03
2018-09-26T19:00:06.827Z,16.00
2018-09-26T19:02:35.621Z,16.00
2018-09-26T19:05:04.665Z,16.00
2018-09-26T19:07:33.277Z,16.35
2018-09-26T19:10:02.138Z,16.07
2018-09-26T19:12:31.015Z,15.98
2018-09-26T19:14:59.791Z,15.94
2018-09-26T19:17:28.618Z,15.91
2018-09-26T19:19:57.497Z,15.75
2018-09-26T19:22:26.353Z,15.77
2018-09-26T19:24:55.163Z,15.73
2018-09-26T19:27:24.050Z,16.06
2018-09-26T19:29:52.833Z,15.77
2018-09-26T19:32:21.692Z,15.72
2018-09-26T19:34:50.524Z,15.64
2018-09-26T19:37:19.365Z,15.57
2018-09-26T19:39:48.192Z,15.52
2018-09-26T19:42:17.055Z,15.50
2018-09-26T19:44:45.873Z,15.48
2018-09-26T19:47:14.725Z,15.81
2018-09-26T19:49:43.560Z,15.57
2018-09-26T19:52:12.600Z,15.55
2018-09-26T19:54:41.250Z,15.56
2018-09-26T19:57:10.113Z,15.56
2018-09-26T19:59:38.937Z,15.52
2018-09-26T20:02:07.830Z,15.49
2018-09-26T20:04:36.722Z,15.43
2018-09-26T20:07:05.583Z,15.41
2018-09-26T20:09:34.446Z,15.39
2018-09-26T20:12:03.290Z,15.37
2018-09-26T20:14:32.114Z,15.34
2018-09-26T20:17:00.939Z,15.29
2018-09-26T20:19:29.789Z,15.25
2018-09-26T20:21:58.777Z,15.24
2018-09-26T20:24:27.547Z,15.18
2018-09-26T20:26:56.410Z,15.16
2018-09-26T20:29:25.470Z,15.15
2018-09-26T20:31:54.043Z,15.49
2018-09-26T20:34:22.893Z,15.25
2018-09-26T20:36:51.720Z,15.17
2018-09-26T20:39:20.563Z,15.10
2018-09-26T20:41:49.399Z,15.03
2018-09-26T20:44:18.246Z,14.96
2018-09-26T20:46:47.104Z,14.87
2018-09-26T20:49:15.926Z,14.78
2018-09-26T20:51:44.836Z,14.69
2018-09-26T20:54:13.651Z,14.60
2018-09-26T20:56:42.468Z,14.56
2018-09-26T20:59:11.330Z,14.48
2018-09-26T21:01:40.180Z,14.46
2018-09-26T21:04:09.013Z,14.42
2018-09-26T21:06:37.883Z,14.35
2018-09-26T21:09:08.778Z,14.34
2018-09-26T21:11:37.642Z,14.30
2018-09-26T21:14:06.879Z,14.19
2018-09-26T21:16:35.759Z,14.14
2018-09-26T21:19:04.604Z,14.08
2018-09-26T21:21:33.439Z,14.03
2018-09-26T21:24:02.312Z,14.03
2018-09-26T21:26:31.121Z,14.06
2018-09-26T21:28:59.978Z,14.09
2018-09-26T21:31:28.802Z,14.11
2018-09-26T21:33:57.649Z,14.53
2018-09-26T21:36:26.467Z,14.35
2018-09-26T21:38:55.576Z,14.32
2018-09-26T21:41:24.351Z,14.25
2018-09-26T21:43:53.205Z,14.22
2018-09-26T21:46:22.032Z,14.23
2018-09-26T21:48:50.902Z,14.24
2018-09-26T21:51:19.723Z,14.27
2018-09-26T21:53:48.843Z,14.64
2018-09-26T21:56:17.688Z,14.44
2018-09-26T21:58:46.499Z,14.36
2018-09-26T22:01:16.545Z,14.71
2018-09-26T22:03:45.382Z,14.50
2018-09-26T22:06:14.221Z,14.44
2018-09-26T22:08:43.064Z,14.73
2018-09-26T22:11:11.917Z,14.45
2018-09-26T22:13:40.759Z,14.36
2018-09-26T22:16:09.657Z,14.35
2018-09-26T22:18:38.510Z,14.30
2018-09-26T22:21:07.338Z,14.23
2018-09-26T22:23:36.254Z,14.55
2018-09-26T22:26:05.097Z,14.26
2018-09-26T22:28:33.963Z,14.18
2018-09-26T22:31:02.791Z,14.18
2018-09-26T22:33:31.637Z,14.19
2018-09-26T22:36:00.458Z,14.16
2018-09-26T22:38:29.317Z,14.16
2018-09-26T22:40:58.142Z,14.14
2018-09-26T22:43:26.972Z,14.15
2018-09-26T22:45:55.800Z,14.14
2018-09-26T22:48:24.649Z,14.06
2018-09-26T22:50:53.484Z,14.02
2018-09-26T22:53:22.354Z,13.99
2018-09-26T22:55:51.179Z,13.94
2018-09-26T22:58:20.033Z,13.84
2018-09-26T23:00:48.870Z,13.74
2018-09-26T23:03:17.738Z,13.65
2018-09-26T23:05:46.592Z,13.56
2018-09-26T23:08:15.439Z,13.47
2018-09-26T23:10:44.282Z,13.37
2018-09-26T23:13:13.128Z,13.29
2018-09-26T23:15:41.979Z,13.25
2018-09-26T23:18:10.820Z,13.18
2018-09-26T23:20:39.739Z,13.17
2018-09-26T23:23:08.555Z,13.12
2018-09-26T23:25:37.413Z,13.50
2018-09-26T23:28:06.265Z,13.60
2018-09-26T23:30:35.093Z,13.25
2018-09-26T23:33:03.914Z,13.18
2018-09-26T23:35:32.713Z,13.06
2018-09-26T23:38:01.551Z,13.08
2018-09-26T23:40:30.367Z,13.42
2018-09-26T23:42:59.219Z,13.10
2018-09-26T23:45:28.052Z,13.05
2018-09-26T23:47:56.885Z,12.94
2018-09-26T23:50:25.720Z,12.94
2018-09-26T23:52:54.552Z,12.89
2018-09-26T23:55:23.435Z,12.88
2018-09-26T23:57:52.271Z,12.85
